sensor_id;sensor_type;location;lat;lon;timestamp;temperature;humidity
37658;DHT22;23500;53.268;8.308;2023-07-24T00:01:16;21.20;74.00
37658;DHT22;23500;53.268;8.308;2023-07-24T00:03:44;21.20;73.90
37658;DHT22;23500;53.268;8.308;2023-07-24T00:06:09;21.20;74.00
37658;DHT22;23500;53.268;8.308;2023-07-24T00:08:35;21.20;73.90
37658;DHT22;23500;53.268;8.308;2023-07-24T00:11:01;21.20;73.90
37658;DHT22;23500;53.268;8.308;2023-07-24T00:13:29;21.10;73.70
37658;DHT22;23500;53.268;8.308;2023-07-24T00:15:56;21.10;74.00
37658;DHT22;23500;53.268;8.308;2023-07-24T00:18:22;21.10;74.00
37658;DHT22;23500;53.268;8.308;2023-07-24T00:20:48;21.10;74.00
37658;DHT22;23500;53.268;8.308;2023-07-24T00:23:13;21.10;73.80
37658;DHT22;23500;53.268;8.308;2023-07-24T00:25:39;21.10;73.90
37658;DHT22;23500;53.268;8.308;2023-07-24T00:28:04;21.10;73.10
37658;DHT22;23500;53.268;8.308;2023-07-24T00:30:30;21.10;73.60
37658;DHT22;23500;53.268;8.308;2023-07-24T00:32:56;21.10;74.00
37658;DHT22;23500;53.268;8.308;2023-07-24T00:35:21;21.10;73.60
37658;DHT22;23500;53.268;8.308;2023-07-24T00:37:47;21.10;74.20
37658;DHT22;23500;53.268;8.308;2023-07-24T00:40:13;21.10;73.70
37658;DHT22;23500;53.268;8.308;2023-07-24T00:42:38;21.10;74.30
37658;DHT22;23500;53.268;8.308;2023-07-24T00:45:04;21.10;73.80
37658;DHT22;23500;53.268;8.308;2023-07-24T00:47:30;21.10;73.60
37658;DHT22;23500;53.268;8.308;2023-07-24T00:49:56;21.10;73.50
37658;DHT22;23500;53.268;8.308;2023-07-24T00:52:22;21.10;73.80
37658;DHT22;23500;53.268;8.308;2023-07-24T00:54:48;21.10;74.10
37658;DHT22;23500;53.268;8.308;2023-07-24T00:57:14;21.10;73.50
37658;DHT22;23500;53.268;8.308;2023-07-24T00:59:41;21.10;73.70
37658;DHT22;23500;53.268;8.308;2023-07-24T01:02:08;21.10;74.10
37658;DHT22;23500;53.268;8.308;2023-07-24T01:04:34;21.10;73.80
37658;DHT22;23500;53.268;8.308;2023-07-24T01:07:00;21.10;73.60
37658;DHT22;23500;53.268;8.308;2023-07-24T01:09:25;21.00;73.70
37658;DHT22;23500;53.268;8.308;2023-07-24T01:12:02;21.00;73.70
37658;DHT22;23500;53.268;8.308;2023-07-24T01:14:44;21.00;73.70
37658;DHT22;23500;53.268;8.308;2023-07-24T01:17:15;21.00;73.70
37658;DHT22;23500;53.268;8.308;2023-07-24T01:19:49;21.00;73.80
37658;DHT22;23500;53.268;8.308;2023-07-24T01:25:31;21.00;73.90
37658;DHT22;23500;53.268;8.308;2023-07-24T01:27:58;21.00;73.50
37658;DHT22;23500;53.268;8.308;2023-07-24T01:30:23;21.00;74.00
37658;DHT22;23500;53.268;8.308;2023-07-24T01:32:49;21.00;73.90
37658;DHT22;23500;53.268;8.308;2023-07-24T01:35:15;21.00;73.30
37658;DHT22;23500;53.268;8.308;2023-07-24T01:37:42;21.00;73.90
37658;DHT22;23500;53.268;8.308;2023-07-24T01:40:10;21.00;73.80
37658;DHT22;23500;53.268;8.308;2023-07-24T01:42:36;21.00;74.10
37658;DHT22;23500;53.268;8.308;2023-07-24T01:45:03;21.00;73.70
37658;DHT22;23500;53.268;8.308;2023-07-24T01:47:29;21.00;73.60
37658;DHT22;23500;53.268;8.308;2023-07-24T01:49:55;21.00;73.90
37658;DHT22;23500;53.268;8.308;2023-07-24T01:52:21;21.00;74.00
37658;DHT22;23500;53.268;8.308;2023-07-24T01:54:47;21.00;73.90
37658;DHT22;23500;53.268;8.308;2023-07-24T01:57:13;21.00;74.10
37658;DHT22;23500;53.268;8.308;2023-07-24T01:59:39;21.00;73.90
37658;DHT22;23500;53.268;8.308;2023-07-24T02:02:05;20.90;73.70
37658;DHT22;23500;53.268;8.308;2023-07-24T02:04:30;20.90;73.80
37658;DHT22;23500;53.268;8.308;2023-07-24T02:06:56;21.00;73.90
37658;DHT22;23500;53.268;8.308;2023-07-24T02:09:22;20.90;73.90
37658;DHT22;23500;53.268;8.308;2023-07-24T02:11:48;20.90;73.00
37658;DHT22;23500;53.268;8.308;2023-07-24T02:14:14;20.90;72.70
37658;DHT22;23500;53.268;8.308;2023-07-24T02:16:42;20.90;73.60
37658;DHT22;23500;53.268;8.308;2023-07-24T02:19:07;20.90;73.00
37658;DHT22;23500;53.268;8.308;2023-07-24T02:21:33;20.90;73.30
37658;DHT22;23500;53.268;8.308;2023-07-24T02:23:59;20.90;73.40
37658;DHT22;23500;53.268;8.308;2023-07-24T02:26:24;20.90;73.70
37658;DHT22;23500;53.268;8.308;2023-07-24T02:28:50;20.90;73.80
37658;DHT22;23500;53.268;8.308;2023-07-24T02:31:16;20.90;74.00
37658;DHT22;23500;53.268;8.308;2023-07-24T02:33:41;20.90;73.40
37658;DHT22;23500;53.268;8.308;2023-07-24T02:36:07;20.90;73.90
37658;DHT22;23500;53.268;8.308;2023-07-24T02:38:33;20.90;73.70
37658;DHT22;23500;53.268;8.308;2023-07-24T02:40:59;20.90;73.90
37658;DHT22;23500;53.268;8.308;2023-07-24T02:43:24;20.90;74.00
37658;DHT22;23500;53.268;8.308;2023-07-24T02:45:50;20.90;72.90
37658;DHT22;23500;53.268;8.308;2023-07-24T02:48:16;20.90;73.90
37658;DHT22;23500;53.268;8.308;2023-07-24T02:50:42;20.90;73.50
37658;DHT22;23500;53.268;8.308;2023-07-24T02:53:07;20.90;73.30
37658;DHT22;23500;53.268;8.308;2023-07-24T02:55:33;20.90;72.80
37658;DHT22;23500;53.268;8.308;2023-07-24T02:57:59;20.90;73.60
37658;DHT22;23500;53.268;8.308;2023-07-24T03:00:24;20.90;73.80
37658;DHT22;23500;53.268;8.308;2023-07-24T03:02:51;20.90;73.70
37658;DHT22;23500;53.268;8.308;2023-07-24T03:05:17;20.90;73.30
37658;DHT22;23500;53.268;8.308;2023-07-24T03:07:43;20.90;73.40
37658;DHT22;23500;53.268;8.308;2023-07-24T03:10:09;20.90;73.60
37658;DHT22;23500;53.268;8.308;2023-07-24T03:12:35;20.90;73.60
37658;DHT22;23500;53.268;8.308;2023-07-24T03:15:00;20.90;73.40
37658;DHT22;23500;53.268;8.308;2023-07-24T03:17:26;20.90;73.50
37658;DHT22;23500;53.268;8.308;2023-07-24T03:19:54;20.90;73.60
37658;DHT22;23500;53.268;8.308;2023-07-24T03:22:20;20.90;73.60
37658;DHT22;23500;53.268;8.308;2023-07-24T03:24:45;20.90;73.50
37658;DHT22;23500;53.268;8.308;2023-07-24T03:27:11;20.80;73.40
37658;DHT22;23500;53.268;8.308;2023-07-24T03:29:37;20.80;73.50
37658;DHT22;23500;53.268;8.308;2023-07-24T03:32:03;20.90;73.50
37658;DHT22;23500;53.268;8.308;2023-07-24T03:34:29;20.80;73.40
37658;DHT22;23500;53.268;8.308;2023-07-24T03:36:54;20.80;73.40
37658;DHT22;23500;53.268;8.308;2023-07-24T03:39:20;20.80;73.50
37658;DHT22;23500;53.268;8.308;2023-07-24T03:41:45;20.80;73.50
37658;DHT22;23500;53.268;8.308;2023-07-24T03:44:11;20.80;73.30
37658;DHT22;23500;53.268;8.308;2023-07-24T03:46:37;20.80;73.50
37658;DHT22;23500;53.268;8.308;2023-07-24T03:49:02;20.80;73.60
37658;DHT22;23500;53.268;8.308;2023-07-24T03:51:28;20.80;73.70
37658;DHT22;23500;53.268;8.308;2023-07-24T03:53:54;20.80;73.90
37658;DHT22;23500;53.268;8.308;2023-07-24T03:56:19;20.80;73.60
37658;DHT22;23500;53.268;8.308;2023-07-24T03:58:45;20.90;74.00
37658;DHT22;23500;53.268;8.308;2023-07-24T04:01:11;20.80;73.60
37658;DHT22;23500;53.268;8.308;2023-07-24T04:03:36;20.90;73.80
37658;DHT22;23500;53.268;8.308;2023-07-24T04:06:02;20.90;73.90
37658;DHT22;23500;53.268;8.308;2023-07-24T04:08:28;20.90;73.90
37658;DHT22;23500;53.268;8.308;2023-07-24T04:10:54;20.90;73.30
37658;DHT22;23500;53.268;8.308;2023-07-24T04:13:21;20.90;72.70
37658;DHT22;23500;53.268;8.308;2023-07-24T04:15:47;21.00;72.60
37658;DHT22;23500;53.268;8.308;2023-07-24T04:18:13;21.00;72.50
37658;DHT22;23500;53.268;8.308;2023-07-24T04:20:38;21.00;72.10
37658;DHT22;23500;53.268;8.308;2023-07-24T04:23:04;21.00;71.90
37658;DHT22;23500;53.268;8.308;2023-07-24T04:25:30;21.00;72.00
37658;DHT22;23500;53.268;8.308;2023-07-24T04:27:55;21.00;71.80
37658;DHT22;23500;53.268;8.308;2023-07-24T04:30:21;21.10;72.00
37658;DHT22;23500;53.268;8.308;2023-07-24T04:32:47;21.10;71.60
37658;DHT22;23500;53.268;8.308;2023-07-24T04:35:12;21.20;71.40
37658;DHT22;23500;53.268;8.308;2023-07-24T04:37:38;21.40;71.00
37658;DHT22;23500;53.268;8.308;2023-07-24T04:40:04;21.50;70.60
37658;DHT22;23500;53.268;8.308;2023-07-24T04:42:31;21.60;70.40
37658;DHT22;23500;53.268;8.308;2023-07-24T04:44:56;21.70;70.10
37658;DHT22;23500;53.268;8.308;2023-07-24T04:47:22;21.60;69.60
37658;DHT22;23500;53.268;8.308;2023-07-24T04:49:48;21.60;69.80
37658;DHT22;23500;53.268;8.308;2023-07-24T04:52:13;21.60;69.60
37658;DHT22;23500;53.268;8.308;2023-07-24T04:54:39;21.50;69.70
37658;DHT22;23500;53.268;8.308;2023-07-24T04:57:04;21.50;69.70
37658;DHT22;23500;53.268;8.308;2023-07-24T04:59:30;21.50;69.90
37658;DHT22;23500;53.268;8.308;2023-07-24T05:01:56;21.40;69.90
37658;DHT22;23500;53.268;8.308;2023-07-24T05:04:22;21.40;70.60
37658;DHT22;23500;53.268;8.308;2023-07-24T05:06:47;21.40;70.90
37658;DHT22;23500;53.268;8.308;2023-07-24T05:09:13;21.30;70.60
37658;DHT22;23500;53.268;8.308;2023-07-24T05:11:41;21.30;70.50
37658;DHT22;23500;53.268;8.308;2023-07-24T05:14:08;21.30;71.30
37658;DHT22;23500;53.268;8.308;2023-07-24T05:16:34;21.30;71.30
37658;DHT22;23500;53.268;8.308;2023-07-24T05:19:00;21.30;71.10
37658;DHT22;23500;53.268;8.308;2023-07-24T05:21:25;21.20;71.30
37658;DHT22;23500;53.268;8.308;2023-07-24T05:23:51;21.30;72.30
37658;DHT22;23500;53.268;8.308;2023-07-24T05:26:17;21.20;72.40
37658;DHT22;23500;53.268;8.308;2023-07-24T05:28:42;21.20;71.70
37658;DHT22;23500;53.268;8.308;2023-07-24T05:31:08;21.20;71.90
37658;DHT22;23500;53.268;8.308;2023-07-24T05:33:34;21.20;72.10
37658;DHT22;23500;53.268;8.308;2023-07-24T05:36:00;21.20;72.20
37658;DHT22;23500;53.268;8.308;2023-07-24T05:38:26;21.20;71.80
37658;DHT22;23500;53.268;8.308;2023-07-24T05:41:00;21.20;71.30
37658;DHT22;23500;53.268;8.308;2023-07-24T05:43:27;21.20;71.90
37658;DHT22;23500;53.268;8.308;2023-07-24T05:45:54;21.20;70.80
37658;DHT22;23500;53.268;8.308;2023-07-24T05:48:21;21.20;70.80
37658;DHT22;23500;53.268;8.308;2023-07-24T05:50:46;21.20;71.50
37658;DHT22;23500;53.268;8.308;2023-07-24T05:53:13;21.20;72.10
37658;DHT22;23500;53.268;8.308;2023-07-24T05:55:39;21.20;71.70
37658;DHT22;23500;53.268;8.308;2023-07-24T05:58:04;21.20;72.10
37658;DHT22;23500;53.268;8.308;2023-07-24T06:00:30;21.20;71.30
37658;DHT22;23500;53.268;8.308;2023-07-24T06:02:56;21.20;71.70
37658;DHT22;23500;53.268;8.308;2023-07-24T06:05:21;21.20;72.00
37658;DHT22;23500;53.268;8.308;2023-07-24T06:07:47;21.20;71.80
37658;DHT22;23500;53.268;8.308;2023-07-24T06:10:13;21.20;71.50
37658;DHT22;23500;53.268;8.308;2023-07-24T06:12:39;21.20;71.90
37658;DHT22;23500;53.268;8.308;2023-07-24T06:15:05;21.20;71.70
37658;DHT22;23500;53.268;8.308;2023-07-24T06:17:31;21.20;71.90
37658;DHT22;23500;53.268;8.308;2023-07-24T06:19:57;21.20;72.10
37658;DHT22;23500;53.268;8.308;2023-07-24T06:22:23;21.20;71.90
37658;DHT22;23500;53.268;8.308;2023-07-24T06:24:49;21.20;72.50
37658;DHT22;23500;53.268;8.308;2023-07-24T06:27:15;21.20;72.90
37658;DHT22;23500;53.268;8.308;2023-07-24T06:29:40;21.20;72.40
37658;DHT22;23500;53.268;8.308;2023-07-24T06:32:07;21.20;72.60
37658;DHT22;23500;53.268;8.308;2023-07-24T06:34:33;21.20;72.20
37658;DHT22;23500;53.268;8.308;2023-07-24T06:36:59;21.20;72.30
37658;DHT22;23500;53.268;8.308;2023-07-24T06:39:24;21.20;73.00
37658;DHT22;23500;53.268;8.308;2023-07-24T06:41:53;21.20;72.60
37658;DHT22;23500;53.268;8.308;2023-07-24T06:44:19;21.20;72.40
37658;DHT22;23500;53.268;8.308;2023-07-24T06:46:45;21.20;73.00
37658;DHT22;23500;53.268;8.308;2023-07-24T06:49:11;21.20;72.40
37658;DHT22;23500;53.268;8.308;2023-07-24T06:51:37;21.20;73.20
37658;DHT22;23500;53.268;8.308;2023-07-24T06:54:07;21.20;72.40
37658;DHT22;23500;53.268;8.308;2023-07-24T06:56:32;21.20;72.60
37658;DHT22;23500;53.268;8.308;2023-07-24T06:58:58;21.20;72.80
37658;DHT22;23500;53.268;8.308;2023-07-24T07:01:24;21.20;73.10
37658;DHT22;23500;53.268;8.308;2023-07-24T07:03:50;21.20;72.80
37658;DHT22;23500;53.268;8.308;2023-07-24T07:06:15;21.20;72.80
37658;DHT22;23500;53.268;8.308;2023-07-24T07:08:42;21.20;73.60
37658;DHT22;23500;53.268;8.308;2023-07-24T07:11:07;21.20;73.90
37658;DHT22;23500;53.268;8.308;2023-07-24T07:13:33;21.20;73.80
37658;DHT22;23500;53.268;8.308;2023-07-24T07:15:59;21.20;74.20
37658;DHT22;23500;53.268;8.308;2023-07-24T07:18:24;21.20;74.10
37658;DHT22;23500;53.268;8.308;2023-07-24T07:20:52;21.20;74.20
37658;DHT22;23500;53.268;8.308;2023-07-24T07:23:18;21.20;74.60
37658;DHT22;23500;53.268;8.308;2023-07-24T07:25:44;21.30;74.70
37658;DHT22;23500;53.268;8.308;2023-07-24T07:28:13;21.30;74.20
37658;DHT22;23500;53.268;8.308;2023-07-24T07:30:39;21.30;74.50
37658;DHT22;23500;53.268;8.308;2023-07-24T07:33:05;21.30;74.20
37658;DHT22;23500;53.268;8.308;2023-07-24T07:35:34;21.30;74.10
37658;DHT22;23500;53.268;8.308;2023-07-24T07:38:00;21.50;73.80
37658;DHT22;23500;53.268;8.308;2023-07-24T07:40:26;21.60;73.50
37658;DHT22;23500;53.268;8.308;2023-07-24T07:42:56;21.70;72.90
37658;DHT22;23500;53.268;8.308;2023-07-24T07:45:23;21.90;72.70
37658;DHT22;23500;53.268;8.308;2023-07-24T07:47:48;21.90;71.90
37658;DHT22;23500;53.268;8.308;2023-07-24T07:50:14;22.00;71.70
37658;DHT22;23500;53.268;8.308;2023-07-24T07:52:40;22.00;71.30
37658;DHT22;23500;53.268;8.308;2023-07-24T07:55:06;22.00;71.50
37658;DHT22;23500;53.268;8.308;2023-07-24T07:57:35;22.00;71.90
37658;DHT22;23500;53.268;8.308;2023-07-24T08:00:02;22.20;70.10
37658;DHT22;23500;53.268;8.308;2023-07-24T08:02:28;22.30;69.70
37658;DHT22;23500;53.268;8.308;2023-07-24T08:04:54;22.30;69.50
37658;DHT22;23500;53.268;8.308;2023-07-24T08:07:19;22.40;69.40
37658;DHT22;23500;53.268;8.308;2023-07-24T08:09:46;22.40;69.30
37658;DHT22;23500;53.268;8.308;2023-07-24T08:12:12;22.30;70.00
37658;DHT22;23500;53.268;8.308;2023-07-24T08:14:37;22.40;69.20
37658;DHT22;23500;53.268;8.308;2023-07-24T08:17:03;22.40;69.10
37658;DHT22;23500;53.268;8.308;2023-07-24T08:19:29;22.40;68.90
37658;DHT22;23500;53.268;8.308;2023-07-24T08:21:55;22.40;68.90
37658;DHT22;23500;53.268;8.308;2023-07-24T08:24:20;22.40;68.90
37658;DHT22;23500;53.268;8.308;2023-07-24T08:26:46;22.40;68.80
37658;DHT22;23500;53.268;8.308;2023-07-24T08:29:12;22.40;68.90
37658;DHT22;23500;53.268;8.308;2023-07-24T08:31:38;22.40;68.80
37658;DHT22;23500;53.268;8.308;2023-07-24T08:34:04;22.30;68.80
37658;DHT22;23500;53.268;8.308;2023-07-24T08:36:29;22.30;68.90
37658;DHT22;23500;53.268;8.308;2023-07-24T08:38:55;22.30;69.00
37658;DHT22;23500;53.268;8.308;2023-07-24T08:41:21;22.20;68.90
37658;DHT22;23500;53.268;8.308;2023-07-24T08:43:46;22.30;69.00
37658;DHT22;23500;53.268;8.308;2023-07-24T08:46:12;22.30;68.90
37658;DHT22;23500;53.268;8.308;2023-07-24T08:48:39;22.30;68.80
37658;DHT22;23500;53.268;8.308;2023-07-24T08:51:13;22.30;68.80
37658;DHT22;23500;53.268;8.308;2023-07-24T08:53:40;22.30;68.80
37658;DHT22;23500;53.268;8.308;2023-07-24T08:56:08;22.30;68.80
37658;DHT22;23500;53.268;8.308;2023-07-24T08:58:35;22.30;68.80
37658;DHT22;23500;53.268;8.308;2023-07-24T09:01:02;22.20;68.70
37658;DHT22;23500;53.268;8.308;2023-07-24T09:03:29;22.20;68.70
37658;DHT22;23500;53.268;8.308;2023-07-24T09:05:55;22.20;68.70
37658;DHT22;23500;53.268;8.308;2023-07-24T09:08:37;22.20;68.80
37658;DHT22;23500;53.268;8.308;2023-07-24T09:11:05;22.20;68.80
37658;DHT22;23500;53.268;8.308;2023-07-24T09:13:31;22.20;68.80
37658;DHT22;23500;53.268;8.308;2023-07-24T09:15:57;22.20;68.60
37658;DHT22;23500;53.268;8.308;2023-07-24T09:18:24;22.30;68.40
37658;DHT22;23500;53.268;8.308;2023-07-24T09:20:50;22.30;68.20
37658;DHT22;23500;53.268;8.308;2023-07-24T09:23:26;22.30;68.30
37658;DHT22;23500;53.268;8.308;2023-07-24T09:25:52;22.30;68.30
37658;DHT22;23500;53.268;8.308;2023-07-24T09:28:19;22.30;68.30
37658;DHT22;23500;53.268;8.308;2023-07-24T09:30:56;22.30;68.20
37658;DHT22;23500;53.268;8.308;2023-07-24T09:33:23;22.30;68.10
37658;DHT22;23500;53.268;8.308;2023-07-24T09:36:00;22.30;68.10
37658;DHT22;23500;53.268;8.308;2023-07-24T09:38:25;22.30;68.20
37658;DHT22;23500;53.268;8.308;2023-07-24T09:40:53;22.30;68.20
37658;DHT22;23500;53.268;8.308;2023-07-24T09:43:20;22.30;68.10
37658;DHT22;23500;53.268;8.308;2023-07-24T09:45:46;22.30;68.00
37658;DHT22;23500;53.268;8.308;2023-07-24T09:48:13;22.40;68.00
37658;DHT22;23500;53.268;8.308;2023-07-24T09:50:41;22.40;67.90
37658;DHT22;23500;53.268;8.308;2023-07-24T09:53:14;22.40;67.80
37658;DHT22;23500;53.268;8.308;2023-07-24T09:56:05;22.40;67.70
37658;DHT22;23500;53.268;8.308;2023-07-24T09:58:35;22.50;67.70
37658;DHT22;23500;53.268;8.308;2023-07-24T10:01:03;22.50;67.60
37658;DHT22;23500;53.268;8.308;2023-07-24T10:03:32;22.50;67.50
37658;DHT22;23500;53.268;8.308;2023-07-24T10:05:59;22.50;68.40
37658;DHT22;23500;53.268;8.308;2023-07-24T10:08:26;22.50;67.60
37658;DHT22;23500;53.268;8.308;2023-07-24T10:10:53;22.40;67.60
37658;DHT22;23500;53.268;8.308;2023-07-24T10:13:20;22.40;67.60
37658;DHT22;23500;53.268;8.308;2023-07-24T10:15:47;22.50;67.60
37658;DHT22;23500;53.268;8.308;2023-07-24T10:18:15;22.40;67.60
37658;DHT22;23500;53.268;8.308;2023-07-24T10:20:42;22.40;67.80
37658;DHT22;23500;53.268;8.308;2023-07-24T10:23:10;22.40;67.80
37658;DHT22;23500;53.268;8.308;2023-07-24T10:25:38;22.40;67.80
37658;DHT22;23500;53.268;8.308;2023-07-24T10:28:08;22.40;67.80
37658;DHT22;23500;53.268;8.308;2023-07-24T10:30:40;22.30;67.80
37658;DHT22;23500;53.268;8.308;2023-07-24T10:33:20;22.30;67.90
37658;DHT22;23500;53.268;8.308;2023-07-24T10:35:48;22.30;67.90
37658;DHT22;23500;53.268;8.308;2023-07-24T10:38:16;22.30;67.90
37658;DHT22;23500;53.268;8.308;2023-07-24T10:40:46;22.30;67.80
37658;DHT22;23500;53.268;8.308;2023-07-24T10:43:18;22.30;67.90
37658;DHT22;23500;53.268;8.308;2023-07-24T10:48:19;22.30;67.90
37658;DHT22;23500;53.268;8.308;2023-07-24T10:50:47;22.30;67.80
37658;DHT22;23500;53.268;8.308;2023-07-24T10:53:15;22.30;67.80
37658;DHT22;23500;53.268;8.308;2023-07-24T10:55:42;22.40;67.80
37658;DHT22;23500;53.268;8.308;2023-07-24T10:58:08;22.40;67.70
37658;DHT22;23500;53.268;8.308;2023-07-24T11:00:34;22.40;67.60
37658;DHT22;23500;53.268;8.308;2023-07-24T11:03:01;22.50;67.50
37658;DHT22;23500;53.268;8.308;2023-07-24T11:05:26;22.50;67.50
37658;DHT22;23500;53.268;8.308;2023-07-24T11:07:52;22.50;67.40
37658;DHT22;23500;53.268;8.308;2023-07-24T11:10:20;22.50;67.40
37658;DHT22;23500;53.268;8.308;2023-07-24T11:12:46;22.60;67.30
37658;DHT22;23500;53.268;8.308;2023-07-24T11:15:13;22.60;67.20
37658;DHT22;23500;53.268;8.308;2023-07-24T11:17:40;22.60;67.20
37658;DHT22;23500;53.268;8.308;2023-07-24T11:20:08;22.60;67.10
37658;DHT22;23500;53.268;8.308;2023-07-24T11:22:34;22.60;67.10
37658;DHT22;23500;53.268;8.308;2023-07-24T11:24:59;22.60;67.10
37658;DHT22;23500;53.268;8.308;2023-07-24T11:27:26;22.60;67.10
37658;DHT22;23500;53.268;8.308;2023-07-24T11:29:52;22.60;67.20
37658;DHT22;23500;53.268;8.308;2023-07-24T11:32:22;22.50;67.30
37658;DHT22;23500;53.268;8.308;2023-07-24T11:34:51;22.50;67.40
37658;DHT22;23500;53.268;8.308;2023-07-24T11:37:18;22.50;67.50
37658;DHT22;23500;53.268;8.308;2023-07-24T11:39:58;22.50;67.50
37658;DHT22;23500;53.268;8.308;2023-07-24T11:42:25;22.50;67.60
37658;DHT22;23500;53.268;8.308;2023-07-24T11:44:51;22.50;67.70
37658;DHT22;23500;53.268;8.308;2023-07-24T11:47:17;22.40;67.70
37658;DHT22;23500;53.268;8.308;2023-07-24T11:49:42;22.40;67.70
37658;DHT22;23500;53.268;8.308;2023-07-24T11:52:13;22.50;67.70
37658;DHT22;23500;53.268;8.308;2023-07-24T11:54:39;22.50;67.70
37658;DHT22;23500;53.268;8.308;2023-07-24T11:57:15;22.50;67.70
37658;DHT22;23500;53.268;8.308;2023-07-24T11:59:41;22.50;67.70
37658;DHT22;23500;53.268;8.308;2023-07-24T12:02:10;22.50;67.60
37658;DHT22;23500;53.268;8.308;2023-07-24T12:04:36;22.50;67.50
37658;DHT22;23500;53.268;8.308;2023-07-24T12:07:06;22.60;67.40
37658;DHT22;23500;53.268;8.308;2023-07-24T12:09:32;22.60;67.30
37658;DHT22;23500;53.268;8.308;2023-07-24T12:11:58;22.70;67.20
37658;DHT22;23500;53.268;8.308;2023-07-24T12:14:24;22.70;67.30
37658;DHT22;23500;53.268;8.308;2023-07-24T12:17:02;22.70;67.30
37658;DHT22;23500;53.268;8.308;2023-07-24T12:19:28;22.70;67.30
37658;DHT22;23500;53.268;8.308;2023-07-24T12:21:54;22.70;67.30
37658;DHT22;23500;53.268;8.308;2023-07-24T12:24:19;22.70;67.20
37658;DHT22;23500;53.268;8.308;2023-07-24T12:26:45;22.70;67.30
37658;DHT22;23500;53.268;8.308;2023-07-24T12:29:11;22.70;67.30
37658;DHT22;23500;53.268;8.308;2023-07-24T12:31:36;22.70;67.30
37658;DHT22;23500;53.268;8.308;2023-07-24T12:34:02;22.70;67.40
37658;DHT22;23500;53.268;8.308;2023-07-24T12:36:28;22.70;67.50
37658;DHT22;23500;53.268;8.308;2023-07-24T12:38:54;22.70;67.50
37658;DHT22;23500;53.268;8.308;2023-07-24T12:41:19;22.60;67.60
37658;DHT22;23500;53.268;8.308;2023-07-24T12:43:45;22.60;67.70
37658;DHT22;23500;53.268;8.308;2023-07-24T12:46:10;22.60;67.80
37658;DHT22;23500;53.268;8.308;2023-07-24T12:48:36;22.60;67.80
37658;DHT22;23500;53.268;8.308;2023-07-24T12:51:03;22.60;67.70
37658;DHT22;23500;53.268;8.308;2023-07-24T12:53:28;22.60;67.70
37658;DHT22;23500;53.268;8.308;2023-07-24T12:55:54;22.60;67.70
37658;DHT22;23500;53.268;8.308;2023-07-24T12:58:20;22.70;67.70
37658;DHT22;23500;53.268;8.308;2023-07-24T13:00:45;22.70;67.70
37658;DHT22;23500;53.268;8.308;2023-07-24T13:03:11;22.70;67.50
37658;DHT22;23500;53.268;8.308;2023-07-24T13:05:37;22.70;67.50
37658;DHT22;23500;53.268;8.308;2023-07-24T13:08:04;22.70;67.50
37658;DHT22;23500;53.268;8.308;2023-07-24T13:10:29;22.70;67.50
37658;DHT22;23500;53.268;8.308;2023-07-24T13:12:55;22.80;67.50
37658;DHT22;23500;53.268;8.308;2023-07-24T13:15:21;22.80;67.50
37658;DHT22;23500;53.268;8.308;2023-07-24T13:17:48;22.80;67.40
37658;DHT22;23500;53.268;8.308;2023-07-24T13:20:14;22.80;67.50
37658;DHT22;23500;53.268;8.308;2023-07-24T13:22:39;22.80;67.50
37658;DHT22;23500;53.268;8.308;2023-07-24T13:25:06;22.80;67.50
37658;DHT22;23500;53.268;8.308;2023-07-24T13:27:32;22.80;67.50
37658;DHT22;23500;53.268;8.308;2023-07-24T13:29:58;22.80;67.50
37658;DHT22;23500;53.268;8.308;2023-07-24T13:32:24;22.80;67.50
37658;DHT22;23500;53.268;8.308;2023-07-24T13:34:49;22.80;67.50
37658;DHT22;23500;53.268;8.308;2023-07-24T13:37:15;22.80;67.50
37658;DHT22;23500;53.268;8.308;2023-07-24T13:39:41;22.80;67.50
37658;DHT22;23500;53.268;8.308;2023-07-24T13:42:06;22.70;67.50
37658;DHT22;23500;53.268;8.308;2023-07-24T13:44:32;22.70;67.60
37658;DHT22;23500;53.268;8.308;2023-07-24T13:46:58;22.70;67.70
37658;DHT22;23500;53.268;8.308;2023-07-24T13:49:23;22.70;67.80
37658;DHT22;23500;53.268;8.308;2023-07-24T13:51:49;22.70;67.80
37658;DHT22;23500;53.268;8.308;2023-07-24T13:54:15;22.70;67.90
37658;DHT22;23500;53.268;8.308;2023-07-24T13:56:41;22.70;67.80
37658;DHT22;23500;53.268;8.308;2023-07-24T13:59:06;22.70;67.80
37658;DHT22;23500;53.268;8.308;2023-07-24T14:01:32;22.70;67.80
37658;DHT22;23500;53.268;8.308;2023-07-24T14:03:58;22.70;68.10
37658;DHT22;23500;53.268;8.308;2023-07-24T14:06:23;22.70;67.90
37658;DHT22;23500;53.268;8.308;2023-07-24T14:08:49;22.60;67.80
37658;DHT22;23500;53.268;8.308;2023-07-24T14:11:14;22.70;67.90
37658;DHT22;23500;53.268;8.308;2023-07-24T14:13:40;22.60;68.00
37658;DHT22;23500;53.268;8.308;2023-07-24T14:16:06;22.50;68.20
37658;DHT22;23500;53.268;8.308;2023-07-24T14:18:31;22.50;68.40
37658;DHT22;23500;53.268;8.308;2023-07-24T14:20:57;22.40;68.40
37658;DHT22;23500;53.268;8.308;2023-07-24T14:23:24;22.40;68.40
37658;DHT22;23500;53.268;8.308;2023-07-24T14:25:50;22.40;68.50
37658;DHT22;23500;53.268;8.308;2023-07-24T14:28:16;22.40;68.60
37658;DHT22;23500;53.268;8.308;2023-07-24T14:30:41;22.40;68.70
37658;DHT22;23500;53.268;8.308;2023-07-24T14:33:07;22.40;68.70
37658;DHT22;23500;53.268;8.308;2023-07-24T14:35:32;22.40;68.70
37658;DHT22;23500;53.268;8.308;2023-07-24T14:37:58;22.30;68.60
37658;DHT22;23500;53.268;8.308;2023-07-24T14:40:24;22.40;68.60
37658;DHT22;23500;53.268;8.308;2023-07-24T14:42:49;22.40;68.50
37658;DHT22;23500;53.268;8.308;2023-07-24T14:45:15;22.40;68.70
37658;DHT22;23500;53.268;8.308;2023-07-24T14:47:41;22.50;69.50
37658;DHT22;23500;53.268;8.308;2023-07-24T14:50:07;22.50;69.90
37658;DHT22;23500;53.268;8.308;2023-07-24T14:52:32;22.60;70.00
37658;DHT22;23500;53.268;8.308;2023-07-24T14:54:58;22.70;69.90
37658;DHT22;23500;53.268;8.308;2023-07-24T14:57:24;22.70;69.80
37658;DHT22;23500;53.268;8.308;2023-07-24T14:59:50;22.70;69.80
37658;DHT22;23500;53.268;8.308;2023-07-24T15:02:15;22.70;70.00
37658;DHT22;23500;53.268;8.308;2023-07-24T15:04:41;22.60;70.20
37658;DHT22;23500;53.268;8.308;2023-07-24T15:07:07;22.60;70.40
37658;DHT22;23500;53.268;8.308;2023-07-24T15:09:32;22.50;70.60
37658;DHT22;23500;53.268;8.308;2023-07-24T15:11:58;22.50;70.70
37658;DHT22;23500;53.268;8.308;2023-07-24T15:14:24;22.50;70.80
37658;DHT22;23500;53.268;8.308;2023-07-24T15:16:50;22.50;70.90
37658;DHT22;23500;53.268;8.308;2023-07-24T15:19:16;22.40;70.90
37658;DHT22;23500;53.268;8.308;2023-07-24T15:21:42;22.40;70.90
37658;DHT22;23500;53.268;8.308;2023-07-24T15:24:09;22.40;71.00
37658;DHT22;23500;53.268;8.308;2023-07-24T15:26:34;22.40;71.10
37658;DHT22;23500;53.268;8.308;2023-07-24T15:29:00;22.30;71.10
37658;DHT22;23500;53.268;8.308;2023-07-24T15:31:26;22.30;71.30